Terminal Aerodrome Forecast
Issued by NWS

Home | Current Version | Previous Version | Text Only | Print | Product List | Glossary On
Versions: 1 2 3 4 5 6 7 8 9 10 11 12 13
000
FTUS46 KPDT 281442 AAA
TAFRDM
TAF AMD
KRDM 281442Z 2815/2912 VRB06KT P6SM SCT100 BKN120
     FM282200 33011G17KT P6SM OVC100
     FM290200 34008KT P6SM VCSH OVC100
     FM290500 24011KT P6SM VCSH BKN100 OVC150=

USA.gov is the U.S. government's official web portal to all federal, state and local government web resources and services.